NorwayFixed distance
Hornindal Rundt
6 Jul2019
Distance
75km
Finishers
10782 men25 women
Winning time
9:14:40h
Median pace
4.70km/h
Pace distribution
107 finishers · 2.61–8.11 km/h · mean 4.75
Every finisher ran the same 75 km course, so these paces are directly comparable.
Histogram of finisher pace. 107 finishers ranged from 2.61 to 8.11 kilometres per hour, with a mean of 4.75 and a median of 4.70. The busiest band is 5.0 to 5.5 kilometres per hour, with 19 finishers.
Results
Ranks 1–50 of 107
| Rank | Runner | Time | Pace | Cat. | Placing |
|---|---|---|---|---|---|
| 1 | OSI Friidrett | 9:14:40h | 8.11 | M23 | 1st M · 1st M23 |
| 2 | *Lillehammer | 9:57:06h | 7.54 | M23 | 2nd M · 2nd M23 |
| 3 | Velledalen IL - Friidr... | 10:25:28h | 7.20 | M23 | 3rd M · 3rd M23 |
| 4 | Sandefjord TIF | 10:48:21h | 6.94 | MU23 | 4th M · 1st MU23 |
| 5 | SKY Blazers | 10:53:25h | 6.89 | M23 | 5th M · 4th M23 |
| 6 | Varegg Fleridrett | 10:54:17h | 6.88 | M23 | 6th M · 5th M23 |
| 7 | SKY Blazers | 11:21:27h | 6.60 | M35 | 7th M · 1st M35 |
| 8 | Nydalens Skiklub | 11:22:43h | 6.59 | W35 | 1st F · 1st W35 |
| 9 | *Isfjorden | 11:30:43h | 6.51 | M35 | 8th M · 2nd M35 |
| 10 | Ntnui / Ntnui Orientering | 11:48:04h | 6.36 | MU23 | 9th M · 2nd MU23 |
| 11 | Fysio Mensendieck, Oslo | 12:02:48h | 6.23 | M23 | 10th M · 6th M23 |
| 12 | Bøler IF Friidrett | 12:15:08h | 6.12 | W40 | 2nd F · 1st W40 |
| 13 | *Utena | 12:16:22h | 6.11 | M23 | 11th M · 7th M23 |
| 14 | Innfjorden IL | 12:19:01h | 6.09 | M45 | 12th M · 1st M45 |
| 15 | Romerike Ultraløperklubb | 12:20:14h | 6.08 | M60 | 13th M · 1st M60 |
| 16 | VIK IL | 12:20:50h | 6.07 | M35 | 14th M · 3rd M35 |
| 17 | Framsen | 12:28:17h | 6.01 | MU23 | 15th M · 3rd MU23 |
| 18 | SKY Blazers | 12:32:11h | 5.98 | W23 | 3rd F · 1st W23 |
| 19 | SKY Blazers | 12:51:40h | 5.83 | W23 | 4th F · 2nd W23 |
| 20 | Team Sportsmanden | 13:19:24h | 5.63 | M45 | 16th M · 2nd M45 |
| 21 | *Kongsberg | 13:24:33h | 5.59 | M35 | 17th M · 4th M35 |
| 22 | Isfjorden IL | 13:28:45h | 5.56 | M23 | 18th M · 8th M23 |
| 23 | Vartdal TIL | 13:32:58h | 5.54 | M23 | 19th M · 9th M23 |
| 24 | LIT | 13:38:30h | 5.50 | M45 | 20th M · 3rd M45 |
| 25 | *Kongsberg | 13:42:35h | 5.47 | M35 | 21st M · 5th M35 |
| 26 | Isfjorden IL | 13:50:11h | 5.42 | W40 | 5th F · 2nd W40 |
| 27 | Gubbsen Laufclub | 13:51:51h | 5.41 | M35 | 22nd M · 6th M35 |
| 28 | *Solvikingarna | 14:17:42h | 5.25 | M50 | 23rd M · 1st M50 |
| 29 | *Oslo | 14:20:15h | 5.23 | W23 | 6th F · 3rd W23 |
| 30 | SKY Blazers | 14:23:41h | 5.21 | M23 | 24th M · 10th M23 |
| 31 | Hornindal IL | 14:30:15h | 5.17 | M55 | 25th M · 1st M55 |
| 32 | Tykk OG LAT | 14:33:22h | 5.15 | M23 | 26th M · 11th M23 |
| 33 | Nordanstigs Friidrott | 14:33:23h | 5.15 | W23 | 7th F · 4th W23 |
| 34 | Nittedal Banquet Racers | 14:33:46h | 5.15 | M50 | 27th M · 2nd M50 |
| 35 | *Gaupne | 14:38:31h | 5.12 | M23 | 28th M · 12th M23 |
| 36 | Kondis | 14:39:03h | 5.12 | M23 | 29th M · 13th M23 |
| 37 | *Nesoddtangen | 14:40:33h | 5.11 | M45 | 30th M · 4th M45 |
| 38 | Asko Hedmark | 14:43:44h | 5.09 | M40 | 31st M · 1st M40 |
| 39 | *Jessheim | 14:43:44h | 5.09 | M23 | 31st M · 14th M23 |
| 40 | Uppsala LK | 14:45:56h | 5.08 | M23 | 33rd M · 15th M23 |
| 41 | *Volda | 14:49:30h | 5.06 | M50 | 34th M · 3rd M50 |
| 42 | *Sogndal | 14:55:02h | 5.03 | W23 | 8th F · 5th W23 |
| 43 | Romerike Ultraløperklubb | 15:19:15h | 4.89 | W40 | 9th F · 3rd W40 |
| 44 | Folldal IF | 15:29:17h | 4.84 | W40 | 10th F · 4th W40 |
| 45 | Totenåsen LØP | 15:35:19h | 4.81 | M23 | 35th M · 16th M23 |
| 46 | Fjolls TIL Fjells | 15:37:32h | 4.80 | M45 | 36th M · 5th M45 |
| 47 | VIK IL | 15:41:18h | 4.78 | M45 | 37th M · 6th M45 |
| 48 | VIK IL | 15:41:19h | 4.78 | M50 | 38th M · 4th M50 |
| 49 | Abisko Ifoik | 15:42:06h | 4.78 | W40 | 11th F · 5th W40 |
| 50 | Hernes IL | 15:43:24h | 4.77 | W40 | 12th F · 6th W40 |
- 1OSI Friidrett1st M · 1st M23Time9:14:40hPace8.11Cat.M23
- 2*Lillehammer2nd M · 2nd M23Time9:57:06hPace7.54Cat.M23
- 3Velledalen IL - Friidr...3rd M · 3rd M23Time10:25:28hPace7.20Cat.M23
- 4Sandefjord TIF4th M · 1st MU23Time10:48:21hPace6.94Cat.MU23
- 5SKY Blazers5th M · 4th M23Time10:53:25hPace6.89Cat.M23
- 6Varegg Fleridrett6th M · 5th M23Time10:54:17hPace6.88Cat.M23
- 7SKY Blazers7th M · 1st M35Time11:21:27hPace6.60Cat.M35
- 8Nydalens Skiklub1st F · 1st W35Time11:22:43hPace6.59Cat.W35
- 9*Isfjorden8th M · 2nd M35Time11:30:43hPace6.51Cat.M35
- 10Ntnui / Ntnui Orientering9th M · 2nd MU23Time11:48:04hPace6.36Cat.MU23
- 11Fysio Mensendieck, Oslo10th M · 6th M23Time12:02:48hPace6.23Cat.M23
- 12Bøler IF Friidrett2nd F · 1st W40Time12:15:08hPace6.12Cat.W40
- 13*Utena11th M · 7th M23Time12:16:22hPace6.11Cat.M23
- 14Innfjorden IL12th M · 1st M45Time12:19:01hPace6.09Cat.M45
- 15Romerike Ultraløperklubb13th M · 1st M60Time12:20:14hPace6.08Cat.M60
- 16VIK IL14th M · 3rd M35Time12:20:50hPace6.07Cat.M35
- 17Framsen15th M · 3rd MU23Time12:28:17hPace6.01Cat.MU23
- 18SKY Blazers3rd F · 1st W23Time12:32:11hPace5.98Cat.W23
- 19SKY Blazers4th F · 2nd W23Time12:51:40hPace5.83Cat.W23
- 20Team Sportsmanden16th M · 2nd M45Time13:19:24hPace5.63Cat.M45
- 21*Kongsberg17th M · 4th M35Time13:24:33hPace5.59Cat.M35
- 22Isfjorden IL18th M · 8th M23Time13:28:45hPace5.56Cat.M23
- 23Vartdal TIL19th M · 9th M23Time13:32:58hPace5.54Cat.M23
- 24LIT20th M · 3rd M45Time13:38:30hPace5.50Cat.M45
- 25*Kongsberg21st M · 5th M35Time13:42:35hPace5.47Cat.M35
- 26Isfjorden IL5th F · 2nd W40Time13:50:11hPace5.42Cat.W40
- 27Gubbsen Laufclub22nd M · 6th M35Time13:51:51hPace5.41Cat.M35
- 28*Solvikingarna23rd M · 1st M50Time14:17:42hPace5.25Cat.M50
- 29*Oslo6th F · 3rd W23Time14:20:15hPace5.23Cat.W23
- 30SKY Blazers24th M · 10th M23Time14:23:41hPace5.21Cat.M23
- 31Hornindal IL25th M · 1st M55Time14:30:15hPace5.17Cat.M55
- 32Tykk OG LAT26th M · 11th M23Time14:33:22hPace5.15Cat.M23
- 33Nordanstigs Friidrott7th F · 4th W23Time14:33:23hPace5.15Cat.W23
- 34Nittedal Banquet Racers27th M · 2nd M50Time14:33:46hPace5.15Cat.M50
- 35*Gaupne28th M · 12th M23Time14:38:31hPace5.12Cat.M23
- 36Kondis29th M · 13th M23Time14:39:03hPace5.12Cat.M23
- 37*Nesoddtangen30th M · 4th M45Time14:40:33hPace5.11Cat.M45
- 38Asko Hedmark31st M · 1st M40Time14:43:44hPace5.09Cat.M40
- 39*Jessheim31st M · 14th M23Time14:43:44hPace5.09Cat.M23
- 40Uppsala LK33rd M · 15th M23Time14:45:56hPace5.08Cat.M23
- 41*Volda34th M · 3rd M50Time14:49:30hPace5.06Cat.M50
- 42*Sogndal8th F · 5th W23Time14:55:02hPace5.03Cat.W23
- 43Romerike Ultraløperklubb9th F · 3rd W40Time15:19:15hPace4.89Cat.W40
- 44Folldal IF10th F · 4th W40Time15:29:17hPace4.84Cat.W40
- 45Totenåsen LØP35th M · 16th M23Time15:35:19hPace4.81Cat.M23
- 46Fjolls TIL Fjells36th M · 5th M45Time15:37:32hPace4.80Cat.M45
- 47VIK IL37th M · 6th M45Time15:41:18hPace4.78Cat.M45
- 48VIK IL38th M · 4th M50Time15:41:19hPace4.78Cat.M50
- 49Abisko Ifoik11th F · 5th W40Time15:42:06hPace4.78Cat.W40
- 50Hernes IL12th F · 6th W40Time15:43:24hPace4.77Cat.W40
Showing ranks 1–50 of 107